Loleta, California
Current Conditions -  °F | °C
As of 4:15 PM on Friday 19 Dec 2014 (Local Time) from KFOT Reporting Station
Overcast Overcast  
Wind Chill: 12°   Ceiling: 8500
Heat Index: 12°   Visibility: 10mi
Dew Point: 10°   Wind: 7mph
Humidity: 88%   Direction: 120°ESE
Pressure: 30.09"   Gusts: NA
Location:  40.64°N, 124.23°W
Report Text: KFOT 200015Z AUTO 12006KT 10SM OVC085 12/10 A3009 RMK AO1
Loading
Personal Weather Stations






























Interactive Weather Map New forecast layout! Learn more

10-Day Weather Forecast

Advertisements
Track Severe Weather on mobile